createdAt,value
2019-03-25T00:00:35.698Z,5.72
2019-03-25T00:01:35.705Z,5.69
2019-03-25T00:02:56.626Z,5.75
2019-03-25T00:03:35.597Z,5.72
2019-03-25T00:04:35.564Z,5.80
2019-03-25T00:05:35.526Z,5.76
2019-03-25T00:06:35.480Z,5.73
2019-03-25T00:07:35.443Z,5.89
2019-03-25T00:09:04.787Z,5.90
2019-03-25T00:09:35.382Z,5.91
2019-03-25T00:10:35.337Z,5.89
2019-03-25T00:11:35.299Z,5.86
2019-03-25T00:12:35.263Z,5.98
2019-03-25T00:13:35.233Z,5.89
2019-03-25T00:14:56.194Z,5.98
2019-03-25T00:15:35.158Z,5.99
2019-03-25T00:16:35.122Z,6.05
2019-03-25T00:17:35.082Z,6.04
2019-03-25T00:18:35.044Z,6.11
2019-03-25T00:19:35.008Z,6.08
2019-03-25T00:20:55.971Z,6.17
2019-03-25T00:21:34.934Z,6.22
2019-03-25T00:22:34.894Z,6.28
2019-03-25T00:23:34.856Z,6.22
2019-03-25T00:24:39.131Z,6.19
2019-03-25T00:25:34.789Z,6.16
2019-03-25T00:26:55.744Z,6.27
2019-03-25T00:27:34.710Z,6.19
2019-03-25T00:28:34.669Z,6.17
2019-03-25T00:29:34.702Z,6.20
2019-03-25T00:30:34.597Z,6.27
2019-03-25T00:31:34.564Z,6.19
2019-03-25T00:32:55.519Z,6.28
2019-03-25T00:33:34.483Z,6.17
2019-03-25T00:34:34.455Z,6.17
2019-03-25T00:35:34.425Z,6.16
2019-03-25T00:36:34.383Z,6.27
2019-03-25T00:37:34.348Z,6.22
2019-03-25T00:38:55.306Z,6.20
2019-03-25T00:39:34.276Z,6.28
2019-03-25T00:40:34.231Z,6.28
2019-03-25T00:41:34.208Z,6.14
2019-03-25T00:42:34.166Z,6.17
2019-03-25T00:43:34.125Z,6.20
2019-03-25T00:44:55.090Z,6.24
2019-03-25T00:45:34.049Z,6.30
2019-03-25T00:46:34.018Z,6.27
2019-03-25T00:47:33.978Z,6.26
2019-03-25T00:48:33.949Z,6.22
2019-03-25T00:49:33.914Z,6.17
2019-03-25T00:50:54.870Z,6.16
2019-03-25T00:51:33.829Z,6.20
2019-03-25T00:52:33.800Z,6.14
2019-03-25T00:53:33.754Z,6.17
2019-03-25T00:54:33.721Z,6.14
2019-03-25T00:55:33.676Z,6.17
2019-03-25T00:56:54.646Z,6.17
2019-03-25T00:57:33.636Z,6.19
2019-03-25T00:58:33.590Z,6.26
2019-03-25T00:59:33.530Z,6.12
2019-03-25T01:00:33.500Z,6.14
2019-03-25T01:01:33.471Z,6.17
2019-03-25T01:02:54.421Z,6.17
2019-03-25T01:03:33.388Z,6.14
2019-03-25T01:04:33.360Z,6.20
2019-03-25T01:05:33.320Z,6.17
2019-03-25T01:06:33.290Z,6.24
2019-03-25T01:07:33.244Z,6.17
2019-03-25T01:08:54.208Z,6.20
2019-03-25T01:09:33.170Z,6.14
2019-03-25T01:10:33.130Z,6.20
2019-03-25T01:11:33.106Z,6.14
2019-03-25T01:12:33.076Z,6.24
2019-03-25T01:13:33.024Z,6.09
2019-03-25T01:14:53.985Z,6.14
2019-03-25T01:15:32.952Z,6.12
2019-03-25T01:16:32.921Z,6.20
2019-03-25T01:17:32.880Z,6.16
2019-03-25T01:18:32.841Z,6.20
2019-03-25T01:19:32.811Z,6.16
2019-03-25T01:20:53.767Z,6.12
2019-03-25T01:21:32.731Z,6.09
2019-03-25T01:22:32.694Z,6.02
2019-03-25T01:23:32.653Z,6.05
2019-03-25T01:24:32.627Z,6.07
2019-03-25T01:25:32.593Z,6.04
2019-03-25T01:26:53.543Z,6.04
2019-03-25T01:27:32.516Z,5.97
2019-03-25T01:28:32.467Z,6.01
2019-03-25T01:29:32.431Z,6.11
2019-03-25T01:30:32.418Z,6.07
2019-03-25T01:31:32.366Z,5.99
2019-03-25T01:32:53.342Z,6.14
2019-03-25T01:33:32.283Z,6.16
2019-03-25T01:34:32.258Z,6.08
2019-03-25T01:35:32.214Z,6.09
2019-03-25T01:36:32.173Z,5.99
2019-03-25T01:37:32.137Z,5.98
2019-03-25T01:38:53.112Z,6.02
2019-03-25T01:39:32.073Z,6.07
2019-03-25T01:40:32.043Z,5.98
2019-03-25T01:41:32.002Z,6.04
2019-03-25T01:42:31.952Z,6.02
2019-03-25T01:43:31.929Z,6.08
2019-03-25T01:44:52.884Z,6.02
2019-03-25T01:45:31.838Z,6.01
2019-03-25T01:46:31.813Z,6.02
2019-03-25T01:47:31.773Z,6.08
2019-03-25T01:48:31.742Z,6.05
2019-03-25T01:49:31.708Z,5.93
2019-03-25T01:50:52.657Z,5.99
2019-03-25T01:51:31.623Z,6.02
2019-03-25T01:52:31.594Z,5.87
2019-03-25T01:53:31.558Z,5.84
2019-03-25T01:54:31.518Z,5.98
2019-03-25T01:55:31.488Z,5.94
2019-03-25T01:56:52.442Z,5.91
2019-03-25T01:57:31.404Z,5.93
2019-03-25T01:58:31.374Z,5.76
2019-03-25T01:59:31.352Z,5.76
2019-03-25T02:00:31.303Z,5.76
2019-03-25T02:01:31.263Z,5.72
2019-03-25T02:02:52.238Z,5.69
2019-03-25T02:03:31.193Z,5.62
2019-03-25T02:04:31.153Z,5.59
2019-03-25T02:05:31.122Z,5.57
2019-03-25T02:06:31.080Z,5.66
2019-03-25T02:07:31.030Z,5.64
2019-03-25T02:08:52.009Z,5.47
2019-03-25T02:09:30.979Z,5.51
2019-03-25T02:10:30.942Z,5.44
2019-03-25T02:11:30.889Z,5.66
2019-03-25T02:12:30.864Z,5.61
2019-03-25T02:13:30.820Z,5.65
2019-03-25T02:14:51.776Z,5.64
2019-03-25T02:15:30.746Z,5.61
2019-03-25T02:16:30.703Z,5.75
2019-03-25T02:17:30.685Z,5.75
2019-03-25T02:18:30.625Z,5.82
2019-03-25T02:19:30.587Z,5.82
2019-03-25T02:20:51.561Z,5.82
2019-03-25T02:21:30.515Z,5.91
2019-03-25T02:22:30.553Z,5.91
2019-03-25T02:23:30.455Z,5.91
2019-03-25T02:24:30.415Z,5.82
2019-03-25T02:25:30.379Z,5.93
2019-03-25T02:26:51.331Z,5.89
2019-03-25T02:27:30.299Z,6.01
2019-03-25T02:28:30.267Z,5.84
2019-03-25T02:29:30.220Z,5.94
2019-03-25T02:30:30.183Z,6.05
2019-03-25T02:31:30.161Z,6.04
2019-03-25T02:32:51.128Z,6.08
2019-03-25T02:33:30.088Z,6.09
2019-03-25T02:34:30.042Z,6.20
2019-03-25T02:35:30.015Z,6.12
2019-03-25T02:36:29.978Z,6.12
2019-03-25T02:37:29.928Z,6.14
2019-03-25T02:38:50.901Z,6.20
2019-03-25T02:39:29.874Z,6.20
2019-03-25T02:40:29.827Z,6.17
2019-03-25T02:41:29.792Z,6.27
2019-03-25T02:42:29.747Z,6.30
2019-03-25T02:43:29.722Z,6.22
2019-03-25T02:44:50.680Z,6.38
2019-03-25T02:45:29.654Z,6.42
2019-03-25T02:46:29.602Z,6.45
2019-03-25T02:47:29.566Z,6.42
2019-03-25T02:48:29.537Z,6.48
2019-03-25T02:49:29.491Z,6.51
2019-03-25T02:50:50.449Z,6.54
2019-03-25T02:51:29.429Z,6.59
2019-03-25T02:52:29.376Z,6.54
2019-03-25T02:53:29.348Z,6.54
2019-03-25T02:54:29.307Z,6.49
2019-03-25T02:55:40.870Z,6.51
2019-03-25T02:56:50.267Z,6.54
2019-03-25T02:57:29.204Z,6.54
2019-03-25T02:58:29.164Z,6.63
2019-03-25T02:59:29.128Z,6.56
2019-03-25T03:00:29.083Z,6.56
2019-03-25T03:01:29.055Z,6.59
2019-03-25T03:02:50.014Z,6.63
2019-03-25T03:03:28.989Z,6.72
2019-03-25T03:04:28.948Z,6.72
2019-03-25T03:05:28.914Z,6.75
2019-03-25T03:06:28.866Z,6.66
2019-03-25T03:07:28.848Z,6.70
2019-03-25T03:08:49.804Z,6.75
2019-03-25T03:09:28.773Z,6.77
2019-03-25T03:10:28.719Z,6.82
2019-03-25T03:11:28.708Z,6.99
2019-03-25T03:12:28.644Z,6.96
2019-03-25T03:13:28.621Z,6.96
2019-03-25T03:14:49.580Z,7.10
2019-03-25T03:15:28.545Z,7.02
2019-03-25T03:16:28.508Z,7.14
2019-03-25T03:17:28.468Z,7.06
2019-03-25T03:18:28.457Z,7.05
2019-03-25T03:19:28.392Z,7.02
2019-03-25T03:20:49.354Z,7.18
2019-03-25T03:21:28.330Z,7.18
2019-03-25T03:22:28.282Z,7.28
2019-03-25T03:23:28.250Z,7.24
2019-03-25T03:24:28.235Z,7.28
2019-03-25T03:25:28.193Z,7.24
2019-03-25T03:26:49.142Z,7.24
2019-03-25T03:27:29.880Z,7.23
2019-03-25T03:28:28.068Z,7.24
2019-03-25T03:29:28.041Z,7.28
2019-03-25T03:30:28.006Z,7.17
2019-03-25T03:31:27.966Z,7.14
2019-03-25T03:32:48.933Z,7.11
2019-03-25T03:33:27.903Z,7.15
2019-03-25T03:34:27.878Z,7.21
2019-03-25T03:35:27.825Z,7.23
2019-03-25T03:36:27.789Z,7.20
2019-03-25T03:37:27.741Z,7.17
2019-03-25T03:38:48.708Z,7.15
2019-03-25T03:39:27.686Z,7.17
2019-03-25T03:40:27.645Z,7.13
2019-03-25T03:41:27.592Z,7.03
2019-03-25T03:42:27.568Z,7.18
2019-03-25T03:43:27.530Z,7.17
2019-03-25T03:44:48.487Z,7.21
2019-03-25T03:45:27.454Z,7.15
2019-03-25T03:46:27.425Z,7.21
2019-03-25T03:47:27.412Z,7.28
2019-03-25T03:48:27.346Z,7.23
2019-03-25T03:49:27.313Z,7.24
2019-03-25T03:50:48.262Z,7.24
2019-03-25T03:51:27.246Z,7.28
2019-03-25T03:52:27.191Z,7.24
2019-03-25T03:53:27.177Z,7.25
2019-03-25T03:54:27.137Z,7.21
2019-03-25T03:55:27.097Z,7.25
2019-03-25T03:56:48.058Z,7.28
2019-03-25T03:57:27.023Z,7.17
2019-03-25T03:58:26.991Z,7.14
2019-03-25T03:59:26.951Z,7.28
2019-03-25T04:00:26.922Z,7.24
2019-03-25T04:01:26.891Z,7.23
2019-03-25T04:02:47.832Z,7.25
2019-03-25T04:03:26.810Z,7.28
2019-03-25T04:04:26.787Z,7.25
2019-03-25T04:05:26.737Z,7.24
2019-03-25T04:06:26.697Z,7.21
2019-03-25T04:07:26.679Z,7.25
2019-03-25T04:08:47.640Z,7.23
2019-03-25T04:09:26.599Z,7.23
2019-03-25T04:10:26.558Z,7.28
2019-03-25T04:11:26.524Z,7.24
2019-03-25T04:12:26.483Z,7.28
2019-03-25T04:13:26.447Z,7.25
2019-03-25T04:14:47.396Z,7.24
2019-03-25T04:15:26.366Z,7.31
2019-03-25T04:16:26.348Z,7.25
2019-03-25T04:17:26.312Z,7.24
2019-03-25T04:18:26.264Z,7.25
2019-03-25T04:19:26.235Z,7.24
2019-03-25T04:20:47.182Z,7.24
2019-03-25T04:21:26.154Z,7.23
2019-03-25T04:22:26.138Z,7.23
2019-03-25T04:23:26.095Z,7.21
2019-03-25T04:24:26.053Z,7.31
2019-03-25T04:25:26.003Z,7.25
2019-03-25T04:26:46.975Z,7.15
2019-03-25T04:27:25.938Z,7.23
2019-03-25T04:28:25.902Z,7.25
2019-03-25T04:29:25.865Z,7.02
2019-03-25T04:30:25.832Z,6.99
2019-03-25T04:31:25.795Z,7.06
2019-03-25T04:32:46.765Z,7.11
2019-03-25T04:33:25.739Z,7.05
2019-03-25T04:34:25.695Z,7.00
2019-03-25T04:35:25.645Z,7.07
2019-03-25T04:36:25.614Z,7.02
2019-03-25T04:37:25.659Z,7.14
2019-03-25T04:38:46.547Z,7.03
2019-03-25T04:39:25.500Z,7.02
2019-03-25T04:40:25.469Z,7.02
2019-03-25T04:41:25.438Z,7.13
2019-03-25T04:42:25.391Z,7.10
2019-03-25T04:43:25.371Z,7.00
2019-03-25T04:44:46.318Z,7.15
2019-03-25T04:45:25.299Z,7.23
2019-03-25T04:46:25.265Z,7.11
2019-03-25T04:47:25.219Z,7.10
2019-03-25T04:48:25.175Z,7.20
2019-03-25T04:49:25.161Z,7.15
2019-03-25T04:50:46.095Z,7.14
2019-03-25T04:51:25.076Z,7.13
2019-03-25T04:52:25.030Z,7.10
2019-03-25T04:53:24.993Z,7.10
2019-03-25T04:54:24.964Z,7.10
2019-03-25T04:55:24.930Z,7.11
2019-03-25T04:56:45.917Z,7.14
2019-03-25T04:57:24.843Z,7.20
2019-03-25T04:58:24.821Z,7.17
2019-03-25T04:59:24.779Z,7.17
2019-03-25T05:00:24.744Z,7.15
2019-03-25T05:01:24.701Z,7.18
2019-03-25T05:02:45.670Z,7.13
2019-03-25T05:03:24.633Z,7.17
2019-03-25T05:04:24.594Z,7.21
2019-03-25T05:05:24.567Z,7.17
2019-03-25T05:06:24.519Z,7.28
2019-03-25T05:07:24.490Z,7.21
2019-03-25T05:08:45.454Z,7.25
2019-03-25T05:09:24.427Z,7.14
2019-03-25T05:10:24.386Z,7.15
2019-03-25T05:11:30.593Z,7.13
2019-03-25T05:12:24.306Z,7.23
2019-03-25T05:13:24.276Z,7.24
2019-03-25T05:14:45.231Z,7.20
2019-03-25T05:15:24.191Z,7.24
2019-03-25T05:16:24.164Z,7.24
2019-03-25T05:17:24.127Z,7.24
2019-03-25T05:18:24.111Z,7.24
2019-03-25T05:19:24.052Z,7.28
2019-03-25T05:20:45.015Z,7.21
2019-03-25T05:21:23.982Z,7.18
2019-03-25T05:22:23.946Z,7.18
2019-03-25T05:23:23.910Z,7.11
2019-03-25T05:24:23.867Z,7.02
2019-03-25T05:25:23.835Z,7.00
2019-03-25T05:26:50.991Z,7.10
2019-03-25T05:27:23.761Z,7.10
2019-03-25T05:28:23.727Z,6.96
2019-03-25T05:29:23.694Z,6.85
2019-03-25T05:30:23.671Z,6.74
2019-03-25T05:31:23.621Z,6.79
2019-03-25T05:32:44.590Z,6.63
2019-03-25T05:33:23.546Z,6.49
2019-03-25T05:34:23.510Z,6.39
2019-03-25T05:35:23.488Z,6.30
2019-03-25T05:36:23.461Z,6.14
2019-03-25T05:37:23.397Z,6.01
2019-03-25T05:38:44.367Z,5.91
2019-03-25T05:39:23.323Z,5.87
2019-03-25T05:40:23.292Z,5.84
2019-03-25T05:41:23.258Z,5.69
2019-03-25T05:42:23.236Z,5.68
2019-03-25T05:43:23.196Z,5.54
2019-03-25T05:44:44.139Z,5.54
2019-03-25T05:45:23.103Z,5.65
2019-03-25T05:46:23.068Z,5.62
2019-03-25T05:47:23.029Z,5.47
2019-03-25T05:48:23.004Z,5.56
2019-03-25T05:49:22.961Z,5.65
2019-03-25T05:50:43.943Z,5.64
2019-03-25T05:51:22.909Z,5.56
2019-03-25T05:52:22.864Z,5.54
2019-03-25T05:53:22.827Z,5.57
2019-03-25T05:54:22.773Z,5.69
2019-03-25T05:55:22.729Z,5.64
2019-03-25T05:56:43.692Z,5.61
2019-03-25T05:57:22.663Z,5.68
2019-03-25T05:58:22.626Z,5.69
2019-03-25T05:59:22.582Z,5.69
2019-03-25T06:00:22.554Z,5.73
2019-03-25T06:01:22.519Z,5.75
2019-03-25T06:02:43.477Z,5.82
2019-03-25T06:03:22.443Z,5.90
2019-03-25T06:04:22.408Z,5.69
2019-03-25T06:05:22.374Z,5.66
2019-03-25T06:06:22.330Z,5.68
2019-03-25T06:07:22.299Z,5.76
2019-03-25T06:08:43.282Z,5.79
2019-03-25T06:09:22.218Z,5.80
2019-03-25T06:10:22.180Z,5.90
2019-03-25T06:11:22.160Z,5.82
2019-03-25T06:12:22.109Z,5.83
2019-03-25T06:13:22.068Z,5.79
2019-03-25T06:14:43.025Z,5.91
2019-03-25T06:15:22.002Z,5.87
2019-03-25T06:16:21.978Z,5.94
2019-03-25T06:17:21.925Z,6.05
2019-03-25T06:18:21.895Z,6.04
2019-03-25T06:19:21.859Z,5.99
2019-03-25T06:20:42.836Z,6.07
2019-03-25T06:21:21.779Z,6.02
2019-03-25T06:22:21.746Z,6.11
2019-03-25T06:23:21.704Z,6.09
2019-03-25T06:24:21.675Z,6.09
2019-03-25T06:25:21.635Z,6.14
2019-03-25T06:26:42.590Z,6.16
2019-03-25T06:27:21.565Z,6.28
2019-03-25T06:28:21.516Z,6.24
2019-03-25T06:29:21.478Z,6.28
2019-03-25T06:30:21.457Z,6.36
2019-03-25T06:31:21.411Z,6.35
2019-03-25T06:32:42.377Z,6.41
2019-03-25T06:33:21.335Z,6.45
2019-03-25T06:34:21.289Z,6.48
2019-03-25T06:35:21.269Z,6.52
2019-03-25T06:36:21.230Z,6.56
2019-03-25T06:37:21.187Z,6.52
2019-03-25T06:38:42.143Z,6.57
2019-03-25T06:39:21.116Z,6.57
2019-03-25T06:40:21.083Z,6.67
2019-03-25T06:41:21.042Z,6.67
2019-03-25T06:42:21.011Z,6.60
2019-03-25T06:43:20.994Z,6.60
2019-03-25T06:44:41.926Z,6.74
2019-03-25T06:45:20.897Z,6.74
2019-03-25T06:46:22.303Z,6.72
2019-03-25T06:47:20.822Z,6.75
2019-03-25T06:48:20.792Z,6.69
2019-03-25T06:49:20.757Z,6.81
2019-03-25T06:50:41.718Z,6.79
2019-03-25T06:51:20.682Z,6.85
2019-03-25T06:52:20.641Z,6.81
2019-03-25T06:53:20.609Z,6.89
2019-03-25T06:54:20.580Z,6.96
2019-03-25T06:55:20.537Z,7.03
2019-03-25T06:56:41.495Z,7.00
2019-03-25T06:57:25.555Z,7.07
2019-03-25T06:58:20.416Z,7.15
2019-03-25T06:59:20.387Z,7.15
2019-03-25T07:00:20.347Z,7.18
2019-03-25T07:01:20.313Z,7.02
2019-03-25T07:02:41.274Z,7.02
2019-03-25T07:03:20.241Z,7.10
2019-03-25T07:04:20.214Z,7.10
2019-03-25T07:05:20.170Z,7.13
2019-03-25T07:06:20.126Z,6.99
2019-03-25T07:07:20.103Z,7.02
2019-03-25T07:08:41.047Z,7.02
2019-03-25T07:09:20.037Z,6.99
2019-03-25T07:10:19.991Z,7.03
2019-03-25T07:11:19.956Z,7.18
2019-03-25T07:12:19.914Z,7.05
2019-03-25T07:13:19.877Z,7.20
2019-03-25T07:14:40.838Z,7.23
2019-03-25T07:15:19.803Z,7.25
2019-03-25T07:16:19.767Z,7.24
2019-03-25T07:17:19.743Z,7.24
2019-03-25T07:18:19.711Z,7.29
2019-03-25T07:19:19.669Z,7.32
2019-03-25T07:20:40.622Z,7.36
2019-03-25T07:21:20.622Z,7.33
2019-03-25T07:22:19.541Z,7.36
2019-03-25T07:23:19.522Z,7.40
2019-03-25T07:24:19.487Z,7.40
2019-03-25T07:25:19.438Z,7.38
2019-03-25T07:26:40.415Z,7.51
2019-03-25T07:27:19.369Z,7.56
2019-03-25T07:28:19.337Z,7.36
2019-03-25T07:29:19.297Z,7.48
2019-03-25T07:30:19.272Z,7.51
2019-03-25T07:31:19.227Z,7.53
2019-03-25T07:32:40.211Z,7.48
2019-03-25T07:33:19.157Z,7.40
2019-03-25T07:34:19.118Z,7.53
2019-03-25T07:35:19.083Z,7.50
2019-03-25T07:36:19.052Z,7.50
2019-03-25T07:37:19.019Z,7.61
2019-03-25T07:38:39.975Z,7.47
2019-03-25T07:39:18.998Z,7.54
2019-03-25T07:40:18.909Z,7.63
2019-03-25T07:41:18.863Z,7.54
2019-03-25T07:42:18.835Z,7.56
2019-03-25T07:43:18.796Z,7.61
2019-03-25T07:44:39.759Z,7.60
2019-03-25T07:45:18.715Z,7.54
2019-03-25T07:46:18.689Z,7.56
2019-03-25T07:47:18.664Z,7.50
2019-03-25T07:48:18.618Z,7.54
2019-03-25T07:49:18.569Z,7.61
2019-03-25T07:50:39.546Z,7.63
2019-03-25T07:51:18.523Z,7.63
2019-03-25T07:52:18.476Z,7.75
2019-03-25T07:53:18.454Z,7.85
2019-03-25T07:54:18.397Z,7.66
2019-03-25T07:55:18.361Z,7.80
2019-03-25T07:56:39.355Z,7.72
2019-03-25T07:57:18.305Z,7.61
2019-03-25T07:58:18.268Z,7.69
2019-03-25T07:59:20.133Z,7.61
2019-03-25T08:00:18.193Z,7.73
2019-03-25T08:01:18.153Z,7.67
2019-03-25T08:02:39.129Z,7.66
2019-03-25T08:03:18.099Z,7.83
2019-03-25T08:04:18.056Z,7.77
2019-03-25T08:05:18.012Z,7.80
2019-03-25T08:06:17.973Z,7.70
2019-03-25T08:07:17.966Z,7.75
2019-03-25T08:08:38.904Z,7.90
2019-03-25T08:09:17.875Z,7.77
2019-03-25T08:10:17.852Z,7.87
2019-03-25T08:11:17.811Z,7.88
2019-03-25T08:12:17.789Z,7.98
2019-03-25T08:13:17.833Z,7.97
2019-03-25T08:14:38.719Z,7.87
2019-03-25T08:15:17.654Z,7.93
2019-03-25T08:16:17.623Z,7.94
2019-03-25T08:17:17.574Z,7.88
2019-03-25T08:18:17.542Z,7.87
2019-03-25T08:19:17.512Z,7.85
2019-03-25T08:20:38.502Z,7.88
2019-03-25T08:21:17.432Z,7.87
2019-03-25T08:22:17.391Z,7.70
2019-03-25T08:23:17.380Z,7.82
2019-03-25T08:24:17.331Z,7.85
2019-03-25T08:25:17.298Z,7.76
2019-03-25T08:26:38.262Z,7.56
2019-03-25T08:27:17.221Z,7.24
2019-03-25T08:28:17.209Z,7.35
2019-03-25T08:29:17.151Z,7.21
2019-03-25T08:30:17.111Z,7.02
2019-03-25T08:31:17.077Z,7.13
2019-03-25T08:32:38.038Z,7.06
2019-03-25T08:33:17.008Z,7.03
2019-03-25T08:34:16.982Z,7.17
2019-03-25T08:35:16.937Z,7.06
2019-03-25T08:36:16.908Z,7.00
2019-03-25T08:37:16.874Z,7.15
2019-03-25T08:38:37.827Z,7.24
2019-03-25T08:39:16.806Z,7.21
2019-03-25T08:40:16.764Z,7.24
2019-03-25T08:41:16.727Z,7.36
2019-03-25T08:42:16.692Z,7.35
2019-03-25T08:43:16.645Z,7.43
2019-03-25T08:44:37.607Z,7.50
2019-03-25T08:45:16.584Z,7.50
2019-03-25T08:46:16.548Z,7.66
2019-03-25T08:47:16.503Z,7.73
2019-03-25T08:48:16.474Z,7.80
2019-03-25T08:49:16.444Z,7.91
2019-03-25T08:50:37.399Z,7.87
2019-03-25T08:51:16.362Z,7.94
2019-03-25T08:52:16.337Z,8.01
2019-03-25T08:53:16.282Z,8.16
2019-03-25T08:54:16.253Z,8.26
2019-03-25T08:55:16.237Z,8.27
2019-03-25T08:56:37.185Z,8.42
2019-03-25T08:57:16.145Z,8.38
2019-03-25T08:58:16.122Z,8.34
2019-03-25T08:59:16.081Z,8.36
2019-03-25T09:00:16.038Z,8.31
2019-03-25T09:01:16.004Z,8.28
2019-03-25T09:02:36.970Z,8.36
2019-03-25T09:03:15.933Z,8.31
2019-03-25T09:04:15.910Z,8.37
2019-03-25T09:05:15.864Z,8.49
2019-03-25T09:06:15.839Z,8.46
2019-03-25T09:07:15.793Z,8.53
2019-03-25T09:08:36.757Z,8.63
2019-03-25T09:09:15.724Z,8.66
2019-03-25T09:10:15.680Z,8.74
2019-03-25T09:11:15.650Z,8.71
2019-03-25T09:12:15.624Z,8.78
2019-03-25T09:13:15.580Z,8.56
2019-03-25T09:14:36.549Z,8.66
2019-03-25T09:15:15.499Z,8.67
2019-03-25T09:16:15.490Z,8.73
2019-03-25T09:17:15.440Z,8.71
2019-03-25T09:18:15.408Z,8.56
2019-03-25T09:19:15.370Z,8.67
2019-03-25T09:20:36.337Z,8.70
2019-03-25T09:21:15.303Z,8.74
2019-03-25T09:22:15.275Z,8.74
2019-03-25T09:23:15.228Z,8.76
2019-03-25T09:24:15.191Z,8.69
2019-03-25T09:25:15.164Z,8.73
2019-03-25T09:26:36.123Z,8.70
2019-03-25T09:27:15.090Z,8.66
2019-03-25T09:28:23.588Z,8.67
2019-03-25T09:29:15.012Z,8.55
2019-03-25T09:30:14.986Z,8.73
2019-03-25T09:31:14.952Z,8.71
2019-03-25T09:32:35.904Z,8.81
2019-03-25T09:33:14.887Z,8.92
2019-03-25T09:34:14.843Z,9.18
2019-03-25T09:35:14.809Z,9.04
2019-03-25T09:36:14.787Z,8.92
2019-03-25T09:37:14.767Z,8.85
2019-03-25T09:38:35.710Z,8.92
2019-03-25T09:39:14.673Z,9.04
2019-03-25T09:40:14.652Z,8.99
2019-03-25T09:41:14.605Z,9.11
2019-03-25T09:42:14.569Z,9.13
2019-03-25T09:43:14.529Z,9.32
2019-03-25T09:44:35.559Z,9.34
2019-03-25T09:45:14.456Z,9.32
2019-03-25T09:46:14.431Z,9.32
2019-03-25T09:47:14.387Z,9.31
2019-03-25T09:48:14.373Z,9.16
2019-03-25T09:49:14.335Z,8.91
2019-03-25T09:50:35.295Z,8.73
2019-03-25T09:51:14.276Z,8.46
2019-03-25T09:52:14.216Z,8.37
2019-03-25T09:53:14.186Z,7.97
2019-03-25T09:54:14.145Z,7.87
2019-03-25T09:55:16.529Z,7.90
2019-03-25T09:56:35.077Z,7.94
2019-03-25T09:57:14.051Z,7.77
2019-03-25T09:58:14.014Z,7.88
2019-03-25T09:59:13.977Z,7.93
2019-03-25T10:00:13.948Z,7.85
2019-03-25T10:01:13.897Z,8.06
2019-03-25T10:02:34.880Z,7.97
2019-03-25T10:03:13.832Z,8.06
2019-03-25T10:04:13.795Z,8.13
2019-03-25T10:05:13.777Z,8.36
2019-03-25T10:06:13.727Z,8.73
2019-03-25T10:07:13.701Z,8.91
2019-03-25T10:08:34.661Z,9.06
2019-03-25T10:09:13.633Z,9.32
2019-03-25T10:10:13.602Z,9.68
2019-03-25T10:11:13.566Z,9.80
2019-03-25T10:12:13.527Z,9.84
2019-03-25T10:13:13.491Z,9.87
2019-03-25T10:14:34.458Z,9.92
2019-03-25T10:15:13.421Z,9.86
2019-03-25T10:16:13.394Z,9.87
2019-03-25T10:17:13.374Z,9.68
2019-03-25T10:18:13.332Z,9.74
2019-03-25T10:19:13.299Z,9.68
2019-03-25T10:20:34.263Z,9.58
2019-03-25T10:21:13.249Z,9.58
2019-03-25T10:22:13.208Z,9.47
2019-03-25T10:23:13.169Z,9.72
2019-03-25T10:24:13.156Z,9.68
2019-03-25T10:25:13.103Z,9.61
2019-03-25T10:26:34.063Z,9.80
2019-03-25T10:27:13.043Z,9.72
2019-03-25T10:28:13.018Z,9.62
2019-03-25T10:29:12.977Z,9.64
2019-03-25T10:30:12.939Z,9.72
2019-03-25T10:31:12.922Z,9.66
2019-03-25T10:32:33.877Z,9.80
2019-03-25T10:33:12.844Z,9.83
2019-03-25T10:34:12.804Z,9.94
2019-03-25T10:35:12.789Z,9.80
2019-03-25T10:36:12.734Z,10.04
2019-03-25T10:37:12.707Z,9.79
2019-03-25T10:38:33.672Z,9.87
2019-03-25T10:39:12.643Z,10.05
2019-03-25T10:40:12.612Z,10.17
2019-03-25T10:41:12.575Z,9.86
2019-03-25T10:42:12.548Z,9.40
2019-03-25T10:43:12.521Z,8.91
2019-03-25T10:44:33.478Z,8.56
2019-03-25T10:45:12.448Z,7.88
2019-03-25T10:46:12.400Z,7.56
2019-03-25T10:47:12.378Z,7.11
2019-03-25T10:48:12.333Z,7.03
2019-03-25T10:49:12.303Z,6.77
2019-03-25T10:50:33.285Z,6.69
2019-03-25T10:51:12.283Z,6.52
2019-03-25T10:52:12.208Z,6.54
2019-03-25T10:53:12.169Z,6.44
2019-03-25T10:54:12.143Z,6.48
2019-03-25T10:55:12.112Z,6.41
2019-03-25T10:56:33.090Z,6.39
2019-03-25T10:57:12.034Z,6.48
2019-03-25T10:58:11.995Z,6.75
2019-03-25T10:59:11.963Z,6.93
2019-03-25T11:00:11.918Z,7.13
2019-03-25T11:01:11.901Z,7.53
2019-03-25T11:02:32.840Z,7.83
2019-03-25T11:03:11.820Z,8.06
2019-03-25T11:04:11.769Z,8.20
2019-03-25T11:05:11.754Z,8.49
2019-03-25T11:06:11.706Z,8.48
2019-03-25T11:07:11.702Z,8.41
2019-03-25T11:08:32.646Z,8.23
2019-03-25T11:09:11.610Z,8.49
2019-03-25T11:10:11.586Z,8.88
2019-03-25T11:11:11.537Z,9.14
2019-03-25T11:12:11.511Z,9.25
2019-03-25T11:13:11.467Z,9.47
2019-03-25T11:14:32.497Z,9.46
2019-03-25T11:15:11.415Z,9.61
2019-03-25T11:16:11.379Z,9.68
2019-03-25T11:17:11.350Z,9.74
2019-03-25T11:18:11.310Z,9.84
2019-03-25T11:19:11.281Z,9.94
2019-03-25T11:20:32.249Z,10.04
2019-03-25T11:21:11.216Z,10.25
2019-03-25T11:22:11.195Z,10.23
2019-03-25T11:23:11.150Z,10.30
2019-03-25T11:24:11.120Z,10.28
2019-03-25T11:25:11.086Z,10.51
2019-03-25T11:26:32.047Z,10.41
2019-03-25T11:27:11.027Z,10.68
2019-03-25T11:28:12.327Z,10.69
2019-03-25T11:29:10.967Z,10.82
2019-03-25T11:30:10.939Z,10.79
2019-03-25T11:31:10.921Z,10.61
2019-03-25T11:32:31.876Z,10.25
2019-03-25T11:33:10.843Z,10.30
2019-03-25T11:34:10.833Z,10.42
2019-03-25T11:35:10.778Z,10.23
2019-03-25T11:36:10.755Z,10.20
2019-03-25T11:37:10.716Z,10.07
2019-03-25T11:38:31.672Z,9.80
2019-03-25T11:39:10.657Z,9.22
2019-03-25T11:40:10.616Z,9.10
2019-03-25T11:41:10.592Z,8.81
2019-03-25T11:42:10.571Z,8.69
2019-03-25T11:43:10.522Z,8.52
2019-03-25T11:44:31.485Z,8.55
2019-03-25T11:45:10.463Z,8.70
2019-03-25T11:46:10.416Z,8.85
2019-03-25T11:47:10.387Z,9.29
2019-03-25T11:48:10.359Z,9.43
2019-03-25T11:49:10.324Z,9.61
2019-03-25T11:50:31.294Z,9.72
2019-03-25T11:51:10.266Z,9.91
2019-03-25T11:52:10.211Z,10.15
2019-03-25T11:53:10.196Z,10.37
2019-03-25T11:54:10.171Z,10.37
2019-03-25T11:55:10.117Z,10.51
2019-03-25T11:56:31.083Z,10.59
2019-03-25T11:57:10.061Z,10.75
2019-03-25T11:58:10.030Z,10.94
2019-03-25T11:59:18.338Z,11.02
2019-03-25T12:00:09.967Z,11.19
2019-03-25T12:01:09.928Z,10.86
2019-03-25T12:02:30.904Z,10.69
2019-03-25T12:03:09.863Z,10.69
2019-03-25T12:04:10.622Z,10.76
2019-03-25T12:05:09.803Z,10.60
2019-03-25T12:06:09.783Z,10.41
2019-03-25T12:07:09.743Z,10.51
2019-03-25T12:08:30.699Z,10.41
2019-03-25T12:09:09.681Z,10.28
2019-03-25T12:10:09.655Z,10.25
2019-03-25T12:11:09.605Z,10.15
2019-03-25T12:12:09.568Z,9.95
2019-03-25T12:13:09.553Z,10.09
2019-03-25T12:14:30.508Z,10.16
2019-03-25T12:15:09.478Z,9.95
2019-03-25T12:16:09.468Z,8.88
2019-03-25T12:17:09.414Z,8.49
2019-03-25T12:18:09.375Z,7.95
2019-03-25T12:19:09.360Z,7.56
2019-03-25T12:20:30.304Z,7.28
2019-03-25T12:21:09.280Z,7.10
2019-03-25T12:22:09.250Z,6.96
2019-03-25T12:23:09.204Z,7.05
2019-03-25T12:24:09.180Z,7.02
2019-03-25T12:25:09.140Z,7.14
2019-03-25T12:26:30.108Z,7.25
2019-03-25T12:27:09.071Z,7.60
2019-03-25T12:28:09.025Z,7.66
2019-03-25T12:29:08.999Z,7.87
2019-03-25T12:30:08.968Z,8.03
2019-03-25T12:31:08.922Z,8.24
2019-03-25T12:32:29.884Z,8.41
2019-03-25T12:33:08.864Z,8.56
2019-03-25T12:34:08.854Z,8.91
2019-03-25T12:35:08.782Z,8.97
2019-03-25T12:36:08.763Z,9.10
2019-03-25T12:37:08.749Z,9.11
2019-03-25T12:38:29.706Z,9.22
2019-03-25T12:39:08.670Z,9.18
2019-03-25T12:40:08.623Z,9.40
2019-03-25T12:41:08.616Z,9.55
2019-03-25T12:42:08.556Z,9.79
2019-03-25T12:43:08.515Z,9.95
2019-03-25T12:44:29.487Z,10.15
2019-03-25T12:45:08.454Z,10.19
2019-03-25T12:46:08.427Z,10.02
2019-03-25T12:47:08.391Z,10.15
2019-03-25T12:48:08.353Z,10.25
2019-03-25T12:49:08.329Z,10.56
2019-03-25T12:50:29.291Z,10.41
2019-03-25T12:51:08.256Z,10.28
2019-03-25T12:52:08.237Z,10.30
2019-03-25T12:53:08.211Z,10.28
2019-03-25T12:54:08.177Z,10.09
2019-03-25T12:55:08.127Z,10.09
2019-03-25T12:56:29.098Z,9.97
2019-03-25T12:57:08.063Z,9.97
2019-03-25T12:58:08.033Z,9.89
2019-03-25T12:59:07.996Z,9.83
2019-03-25T13:00:07.971Z,9.69
2019-03-25T13:01:07.953Z,9.62
2019-03-25T13:02:28.909Z,9.61
2019-03-25T13:03:07.868Z,9.44
2019-03-25T13:04:07.837Z,9.51
2019-03-25T13:05:07.806Z,9.43
2019-03-25T13:06:07.762Z,9.25
2019-03-25T13:07:07.743Z,9.14
2019-03-25T13:08:33.116Z,9.06
2019-03-25T13:09:07.666Z,8.95
2019-03-25T13:10:07.639Z,8.45
2019-03-25T13:11:07.608Z,8.01
2019-03-25T13:12:07.568Z,7.87
2019-03-25T13:13:07.536Z,7.63
2019-03-25T13:14:28.501Z,7.82
2019-03-25T13:15:07.459Z,7.66
2019-03-25T13:16:07.432Z,7.70